This is the latest recevied weather packets stored in our database for station/object WX4SGA. If no packets are shown the sender has not sent any weather packets the latest 10 day(s).
| Time | Temp. | Humidity | Pressure | Rain* | Wind** | Luminosity | Snow |
|---|---|---|---|---|---|---|---|
| 1777790678 | 10° C | 99% | 1017.6 hPa | 0 mm | - | 0 W/m² | - |
| 1777790375 | 10° C | 99% | 1017.6 hPa | 0 mm | - | 0 W/m² | - |
| 1777790072 | 10° C | 99% | 1017.6 hPa | 0 mm | - | 0 W/m² | - |
| 1777789771 | 10° C | 99% | 1017.6 hPa | 0 mm | - | 0 W/m² | - |
| 1777789469 | 10° C | 99% | 1017.6 hPa | 0 mm | - | 0 W/m² | - |
| 1777789167 | 10° C | 99% | 1017.6 hPa | 0 mm | - | 0 W/m² | - |
| 1777788863 | 10° C | 98% | 1017.3 hPa | 0 mm | - | 0 W/m² | - |
| 1777788559 | 10° C | 98% | 1017.3 hPa | 0 mm | - | 0 W/m² | - |
| 1777788258 | 10.56° C | 98% | 1017.3 hPa | 0 mm | - | 0 W/m² | - |
| 1777787955 | 10.56° C | 98% | 1017.3 hPa | 0 mm | - | 0 W/m² | - |
| 1777787650 | 10.56° C | 97% | 1017.6 hPa | 0 mm | - | 0 W/m² | - |
| 1777787346 | 10.56° C | 97% | 1017.6 hPa | 0 mm | - | 0 W/m² | - |
| 1777787042 | 11.11° C | 97% | 1017.6 hPa | 0 mm | - | 0 W/m² | - |
| 1777786740 | 11.11° C | 97% | 1017.6 hPa | 0 mm | - | 0 W/m² | - |
| 1777786438 | 11.11° C | 96% | 1017.6 hPa | 0 mm | - | 0 W/m² | - |
| 1777786134 | 11.67° C | 95% | 1017.6 hPa | 0 mm | - | 0 W/m² | - |
| 1777785831 | 11.67° C | 94% | 1017.6 hPa | 0 mm | - | 0 W/m² | - |
| 1777785527 | 12.22° C | 92% | 1017.6 hPa | 0 mm | - | 0 W/m² | - |
| 1777785223 | 13.33° C | 89% | 1017.6 hPa | 0 mm | - | 0 W/m² | - |
| 1777784921 | 13.89° C | 82% | 1017.6 hPa | 0 mm | - | 0 W/m² | - |
| 1777784617 | 14.44° C | 81% | 1017.6 hPa | 0 mm | - | 0 W/m² | - |
| 1777784314 | 14.44° C | 81% | 1017.3 hPa | 0 mm | - | 0 W/m² | - |
| 1777784012 | 13.33° C | 89% | 1017.3 hPa | 0 mm | - | 0 W/m² | - |
| 1777783708 | 12.78° C | 99% | 1017.3 hPa | 0 mm | - | 0 W/m² | - |
| 1777783405 | 12.22° C | 99% | 1017.3 hPa | 0 mm | - | 0 W/m² | - |
* Rain latest hour (hover to see other rain measurements)
** Current wind speed in m/s (hover to see current wind gust speed)